createdAt,value
2022-10-12T00:01:07.119Z,9.03
2022-10-12T00:03:35.500Z,8.70
2022-10-12T00:06:11.323Z,6.43
2022-10-12T00:08:40.127Z,10.50
2022-10-12T00:11:08.850Z,8.20
2022-10-12T00:13:36.192Z,10.83
2022-10-12T00:16:08.904Z,10.37
2022-10-12T00:18:37.095Z,13.60
2022-10-12T00:21:09.248Z,14.10
2022-10-12T00:23:37.951Z,10.77
2022-10-12T00:26:08.313Z,13.00
2022-10-12T00:28:36.054Z,12.23
2022-10-12T00:31:09.112Z,5.70
2022-10-12T00:33:38.575Z,6.87
2022-10-12T00:36:25.111Z,6.57
2022-10-12T00:38:55.081Z,12.20
2022-10-12T00:41:27.217Z,13.53
2022-10-12T00:43:58.306Z,14.73
2022-10-12T00:46:41.707Z,13.47
2022-10-12T00:49:23.431Z,15.27
2022-10-12T00:52:01.044Z,12.83
2022-10-12T00:54:33.632Z,17.03
2022-10-12T00:57:05.753Z,16.43
2022-10-12T00:59:42.928Z,13.33
2022-10-12T01:02:10.054Z,11.40
2022-10-12T01:04:38.148Z,13.23
2022-10-12T01:07:05.141Z,11.97
2022-10-12T01:09:32.182Z,13.13
2022-10-12T01:11:59.416Z,11.47
2022-10-12T01:14:27.156Z,9.37
2022-10-12T01:17:20.687Z,8.77
2022-10-12T01:20:20.217Z,10.50
2022-10-12T01:23:17.017Z,11.83
2022-10-12T01:26:14.001Z,10.67
2022-10-12T01:28:54.863Z,11.37
2022-10-12T01:31:41.569Z,9.43
2022-10-12T01:34:55.418Z,9.87
2022-10-12T01:37:45.046Z,10.37
2022-10-12T01:40:29.854Z,11.67
2022-10-12T01:42:58.673Z,10.30
2022-10-12T01:45:42.057Z,9.97
2022-10-12T01:48:20.193Z,9.87
2022-10-12T01:54:28.064Z,8.27
2022-10-12T01:57:39.454Z,9.37
2022-10-12T02:00:12.361Z,6.03
2022-10-12T02:03:00.790Z,8.87
2022-10-12T02:05:36.096Z,13.67
2022-10-12T02:08:16.128Z,12.90
2022-10-12T02:11:06.562Z,6.43
2022-10-12T02:13:42.832Z,12.63
2022-10-12T02:16:14.274Z,10.27
2022-10-12T02:18:46.956Z,8.07
2022-10-12T02:21:20.973Z,10.13
2022-10-12T02:23:49.463Z,13.27
2022-10-12T02:26:17.991Z,9.60
2022-10-12T02:28:46.754Z,10.30
2022-10-12T02:31:56.878Z,11.53
2022-10-12T02:35:22.617Z,11.60
2022-10-12T02:38:00.488Z,12.43
2022-10-12T02:40:48.323Z,10.73
2022-10-12T02:43:26.444Z,8.93
2022-10-12T02:45:55.834Z,10.87
2022-10-12T02:48:25.152Z,12.17
2022-10-12T02:50:56.432Z,11.23
2022-10-12T02:53:25.233Z,9.87
2022-10-12T02:56:14.917Z,12.03
2022-10-12T02:58:45.421Z,9.20
2022-10-12T03:01:13.817Z,10.00
2022-10-12T03:03:40.907Z,7.63
2022-10-12T03:06:08.244Z,12.60
2022-10-12T03:08:35.798Z,9.33
2022-10-12T03:11:06.866Z,7.43
2022-10-12T03:13:34.334Z,9.00
2022-10-12T03:16:11.613Z,8.33
2022-10-12T03:18:39.549Z,14.53
2022-10-12T03:21:06.926Z,13.80
2022-10-12T03:23:34.335Z,11.03
2022-10-12T03:26:01.285Z,11.37
2022-10-12T03:28:28.420Z,10.43
2022-10-12T03:30:55.813Z,12.33
2022-10-12T03:33:22.962Z,7.47
2022-10-12T03:35:50.165Z,9.10
2022-10-12T03:38:18.943Z,9.57
2022-10-12T03:40:46.787Z,14.03
2022-10-12T03:43:14.229Z,10.93
2022-10-12T03:45:41.147Z,11.77
2022-10-12T03:48:08.211Z,9.00
2022-10-12T03:50:35.959Z,7.73
2022-10-12T03:53:05.279Z,10.80
2022-10-12T03:55:33.121Z,10.77
2022-10-12T03:58:00.314Z,7.87
2022-10-12T04:00:28.208Z,9.57
2022-10-12T04:02:55.688Z,10.03
2022-10-12T04:05:22.977Z,13.10
2022-10-12T04:07:50.333Z,9.40
2022-10-12T04:10:17.451Z,10.90
2022-10-12T04:12:44.959Z,15.17
2022-10-12T04:15:12.152Z,8.97
2022-10-12T04:17:39.610Z,8.37
2022-10-12T04:20:07.772Z,10.93
2022-10-12T04:22:34.670Z,6.97
2022-10-12T04:25:01.595Z,12.07
2022-10-12T04:27:28.742Z,11.70
2022-10-12T04:29:55.677Z,10.33
2022-10-12T04:32:22.580Z,8.40
2022-10-12T04:34:49.653Z,10.93
2022-10-12T04:37:16.628Z,7.43
2022-10-12T04:39:43.563Z,11.87
2022-10-12T04:42:10.545Z,12.30
2022-10-12T04:44:37.451Z,10.83
2022-10-12T04:47:04.392Z,10.40
2022-10-12T04:49:31.406Z,8.87
2022-10-12T04:51:58.284Z,9.27
2022-10-12T04:54:25.192Z,8.87
2022-10-12T04:56:52.135Z,12.53
2022-10-12T04:59:19.036Z,12.20
2022-10-12T05:01:46.040Z,8.83
2022-10-12T05:04:13.182Z,9.83
2022-10-12T05:06:40.084Z,13.33
2022-10-12T05:09:07.074Z,11.33
2022-10-12T05:11:34.179Z,15.33
2022-10-12T05:14:01.081Z,9.30
2022-10-12T05:16:28.030Z,7.57
2022-10-12T05:18:54.985Z,10.53
2022-10-12T05:21:21.922Z,12.23
2022-10-12T05:23:52.908Z,16.40
2022-10-12T05:26:20.178Z,8.90
2022-10-12T05:28:47.288Z,9.73
2022-10-12T05:31:14.397Z,14.20
2022-10-12T05:33:41.291Z,7.80
2022-10-12T05:36:08.882Z,12.60
2022-10-12T05:38:35.818Z,11.57
2022-10-12T05:41:02.750Z,14.13
2022-10-12T05:43:29.751Z,13.23
2022-10-12T05:45:56.739Z,11.67
2022-10-12T05:48:24.212Z,13.73
2022-10-12T05:50:54.833Z,9.43
2022-10-12T05:53:23.140Z,9.53
2022-10-12T05:55:58.866Z,11.20
2022-10-12T05:58:28.130Z,8.60
2022-10-12T06:00:55.738Z,10.67
2022-10-12T06:03:25.981Z,11.53
2022-10-12T06:05:53.509Z,8.67
2022-10-12T06:08:20.506Z,10.00
2022-10-12T06:10:51.127Z,12.57
2022-10-12T06:13:19.735Z,10.07
2022-10-12T06:15:47.885Z,10.20
2022-10-12T06:18:16.926Z,11.53
2022-10-12T06:21:08.764Z,12.33
2022-10-12T06:23:39.636Z,15.10
2022-10-12T06:26:07.003Z,11.13
2022-10-12T06:28:33.993Z,9.30
2022-10-12T06:31:01.376Z,9.10
2022-10-12T06:33:28.794Z,13.47
2022-10-12T06:35:56.430Z,12.90
2022-10-12T06:38:24.023Z,12.27
2022-10-12T06:40:52.459Z,14.90
2022-10-12T06:43:20.145Z,11.53
2022-10-12T06:45:47.078Z,15.23
2022-10-12T06:48:18.347Z,14.10
2022-10-12T06:50:47.459Z,13.43
2022-10-12T06:53:14.331Z,15.23
2022-10-12T06:55:41.384Z,11.53
2022-10-12T06:58:08.357Z,15.50
2022-10-12T07:00:35.674Z,13.43
2022-10-12T07:03:02.715Z,14.10
2022-10-12T07:05:30.122Z,17.87
2022-10-12T07:07:57.353Z,11.10
2022-10-12T07:10:25.196Z,15.23
2022-10-12T07:12:52.149Z,13.87
2022-10-12T07:15:19.541Z,16.57
2022-10-12T07:17:46.506Z,19.13
2022-10-12T07:20:13.560Z,17.03
2022-10-12T07:22:40.461Z,18.53
2022-10-12T07:25:08.066Z,16.30
2022-10-12T07:27:35.201Z,52.50
2022-10-12T07:30:02.711Z,33.70
2022-10-12T07:32:29.591Z,20.17
2022-10-12T07:34:57.273Z,18.97
2022-10-12T07:37:24.213Z,17.37
2022-10-12T07:39:56.961Z,18.57
2022-10-12T07:42:25.252Z,20.47
2022-10-12T07:44:52.360Z,21.27
2022-10-12T07:47:19.452Z,20.03
2022-10-12T07:49:46.517Z,15.43
2022-10-12T07:52:13.584Z,18.80
2022-10-12T07:54:40.524Z,12.10
2022-10-12T07:57:08.593Z,15.83
2022-10-12T07:59:35.661Z,12.10
2022-10-12T08:02:02.699Z,20.17
2022-10-12T08:04:29.797Z,24.63
2022-10-12T08:06:57.989Z,20.97
2022-10-12T08:09:25.030Z,20.33
2022-10-12T08:11:52.047Z,17.33
2022-10-12T08:14:19.078Z,21.87
2022-10-12T08:16:46.131Z,16.20
2022-10-12T08:19:13.510Z,17.97
2022-10-12T08:21:42.560Z,22.33
2022-10-12T08:24:13.473Z,22.13
2022-10-12T08:26:40.487Z,27.07
2022-10-12T08:29:08.452Z,24.67
2022-10-12T08:31:36.136Z,20.17
2022-10-12T08:34:04.457Z,28.67
2022-10-12T08:36:31.494Z,22.77
2022-10-12T08:38:58.636Z,30.30
2022-10-12T08:41:53.054Z,22.03
2022-10-12T08:44:52.184Z,30.47
2022-10-12T08:47:32.350Z,30.73
2022-10-12T08:50:02.559Z,27.10
2022-10-12T08:52:41.775Z,24.63
2022-10-12T08:55:29.306Z,28.27
2022-10-12T08:57:56.938Z,30.50
2022-10-12T09:00:24.124Z,29.63
2022-10-12T09:03:35.942Z,34.80
2022-10-12T09:06:19.686Z,36.63
2022-10-12T09:09:32.573Z,36.60
2022-10-12T09:12:16.094Z,41.93
2022-10-12T09:14:43.706Z,57.70
2022-10-12T09:17:42.110Z,40.80
2022-10-12T09:20:41.251Z,34.57
2022-10-12T09:23:32.579Z,33.47
2022-10-12T09:26:39.985Z,28.27
2022-10-12T09:29:28.955Z,31.23
2022-10-12T09:32:37.198Z,29.83
2022-10-12T09:35:05.566Z,33.97
2022-10-12T09:37:33.579Z,39.53
2022-10-12T09:40:00.614Z,49.53
2022-10-12T09:42:27.712Z,37.80
2022-10-12T09:45:12.263Z,41.97
2022-10-12T09:47:39.980Z,40.22
2022-10-12T09:50:08.316Z,41.07
2022-10-12T09:52:45.134Z,37.93
2022-10-12T09:58:02.829Z,36.42
2022-10-12T10:00:33.626Z,41.55
2022-10-12T10:03:02.968Z,38.60
2022-10-12T10:05:38.501Z,36.83
2022-10-12T10:08:14.341Z,37.65
2022-10-12T10:11:02.201Z,36.80
2022-10-12T10:13:31.701Z,37.47
2022-10-12T10:16:12.480Z,27.75
2022-10-12T10:19:18.962Z,35.92
2022-10-12T10:21:46.350Z,39.85
2022-10-12T10:24:31.589Z,42.92
2022-10-12T10:27:03.484Z,35.47
2022-10-12T10:29:42.149Z,30.98
2022-10-12T10:32:26.803Z,29.23
2022-10-12T10:35:13.169Z,37.88
2022-10-12T10:37:52.379Z,28.65
2022-10-12T10:40:30.920Z,27.05
2022-10-12T10:43:06.033Z,23.83
2022-10-12T10:45:50.790Z,18.15
2022-10-12T10:48:32.004Z,24.38
2022-10-12T10:51:05.483Z,22.92
2022-10-12T10:53:47.334Z,23.63
2022-10-12T10:56:26.531Z,20.70
2022-10-12T10:59:09.933Z,21.50
2022-10-12T11:01:56.853Z,24.80
2022-10-12T11:04:32.960Z,21.52
2022-10-12T11:07:30.757Z,19.77
2022-10-12T11:10:03.401Z,23.10
2022-10-12T11:12:37.788Z,22.33
2022-10-12T11:15:19.826Z,25.20
2022-10-12T11:17:57.377Z,30.92
2022-10-12T11:20:46.821Z,23.80
2022-10-12T11:23:30.053Z,23.50
2022-10-12T11:26:08.227Z,21.90
2022-10-12T11:28:37.637Z,21.30
2022-10-12T11:31:07.846Z,22.02
2022-10-12T11:33:42.116Z,15.75
2022-10-12T11:36:14.937Z,15.70
2022-10-12T11:38:51.616Z,12.82
2022-10-12T11:41:48.471Z,17.85
2022-10-12T11:44:12.091Z,14.88
2022-10-12T11:46:57.423Z,19.52
2022-10-12T11:49:40.334Z,16.83
2022-10-12T11:52:11.667Z,25.25
2022-10-12T11:54:53.057Z,19.95
2022-10-12T11:57:27.480Z,18.80
2022-10-12T12:00:25.591Z,15.43
2022-10-12T12:03:05.120Z,17.05
2022-10-12T12:05:32.910Z,18.08
2022-10-12T12:07:59.790Z,12.38
2022-10-12T12:10:27.650Z,20.02
2022-10-12T12:13:17.919Z,12.65
2022-10-12T12:15:47.825Z,12.73
2022-10-12T12:18:23.339Z,16.85
2022-10-12T12:20:50.186Z,14.27
2022-10-12T12:23:27.032Z,20.17
2022-10-12T12:26:22.439Z,12.45
2022-10-12T12:29:08.178Z,20.92
2022-10-12T12:31:35.414Z,14.07
2022-10-12T12:34:05.990Z,12.75
2022-10-12T12:36:37.840Z,16.10
2022-10-12T12:39:08.928Z,11.75
2022-10-12T12:42:02.537Z,19.75
2022-10-12T12:44:40.592Z,11.95
2022-10-12T12:47:32.519Z,16.55
2022-10-12T12:50:03.117Z,17.27
2022-10-12T12:52:39.879Z,18.05
2022-10-12T12:55:37.626Z,19.35
2022-10-12T12:58:37.027Z,13.77
2022-10-12T13:01:23.810Z,18.58
2022-10-12T13:04:28.894Z,15.77
2022-10-12T13:07:38.415Z,11.07
2022-10-12T13:11:04.748Z,13.65
2022-10-12T13:14:02.311Z,12.68
2022-10-12T13:19:54.905Z,10.95
2022-10-12T13:22:33.796Z,13.07
2022-10-12T13:25:08.288Z,12.32
2022-10-12T13:27:51.013Z,10.20
2022-10-12T13:30:46.059Z,12.32
2022-10-12T13:33:23.528Z,20.85
2022-10-12T13:36:08.634Z,17.67
2022-10-12T13:38:40.264Z,13.27
2022-10-12T13:41:17.107Z,9.57
2022-10-12T13:43:54.030Z,14.52
2022-10-12T13:46:43.311Z,14.50
2022-10-12T13:49:21.954Z,8.98
2022-10-12T13:52:00.428Z,9.40
2022-10-12T13:54:48.991Z,10.50
2022-10-12T13:57:32.347Z,13.60
2022-10-12T14:00:08.370Z,11.75
2022-10-12T14:02:35.621Z,16.48
2022-10-12T14:05:05.426Z,16.88
2022-10-12T14:07:41.515Z,14.00
2022-10-12T14:10:19.548Z,12.30
2022-10-12T14:12:49.992Z,17.23
2022-10-12T14:15:17.577Z,18.13
2022-10-12T14:17:52.667Z,12.73
2022-10-12T14:20:31.306Z,10.98
2022-10-12T14:23:01.318Z,13.60
2022-10-12T14:25:30.959Z,14.25
2022-10-12T14:28:05.286Z,14.57
2022-10-12T14:30:41.237Z,13.77
2022-10-12T14:33:17.289Z,15.52
2022-10-12T14:35:48.195Z,12.55
2022-10-12T14:38:38.923Z,18.35
2022-10-12T14:41:44.774Z,13.32
2022-10-12T14:44:16.624Z,13.90
2022-10-12T14:47:02.849Z,12.85
2022-10-12T14:49:42.047Z,11.38
2022-10-12T14:52:21.784Z,15.88
2022-10-12T14:54:57.783Z,15.23
2022-10-12T14:57:30.121Z,16.92
2022-10-12T14:59:58.821Z,18.38
2022-10-12T15:02:33.412Z,17.15
2022-10-12T15:05:01.168Z,17.10
2022-10-12T15:07:34.100Z,14.10
2022-10-12T15:10:01.914Z,17.00
2022-10-12T15:12:31.746Z,16.35
2022-10-12T15:15:13.790Z,11.48
2022-10-12T15:17:40.684Z,13.38
2022-10-12T15:20:09.540Z,14.85
2022-10-12T15:22:36.458Z,19.02
2022-10-12T15:25:20.206Z,10.93
2022-10-12T15:27:47.274Z,17.77
2022-10-12T15:30:15.105Z,12.30
2022-10-12T15:32:42.454Z,13.85
2022-10-12T15:35:21.940Z,13.60
2022-10-12T15:37:49.563Z,12.65
2022-10-12T15:40:19.195Z,16.23
2022-10-12T15:42:47.081Z,13.30
2022-10-12T15:45:26.281Z,17.52
2022-10-12T15:47:54.332Z,15.23
2022-10-12T15:50:30.402Z,14.93
2022-10-12T15:52:57.954Z,15.02
2022-10-12T15:55:28.903Z,13.15
2022-10-12T15:57:56.839Z,12.63
2022-10-12T16:00:27.515Z,15.20
2022-10-12T16:02:56.715Z,14.02
2022-10-12T16:05:28.460Z,15.35
2022-10-12T16:07:55.481Z,15.70
2022-10-12T16:10:26.360Z,19.00
2022-10-12T16:12:54.464Z,16.13
2022-10-12T16:15:32.111Z,17.52
2022-10-12T16:18:00.907Z,14.43
2022-10-12T16:20:31.154Z,19.05
2022-10-12T16:23:00.595Z,20.10
2022-10-12T16:25:28.390Z,20.35
2022-10-12T16:27:57.857Z,19.02
2022-10-12T16:30:26.556Z,22.85
2022-10-12T16:32:53.889Z,16.42
2022-10-12T16:35:21.268Z,15.25
2022-10-12T16:37:48.536Z,14.98
2022-10-12T16:40:16.333Z,13.32
2022-10-12T16:42:43.576Z,13.82
2022-10-12T16:45:11.306Z,11.73
2022-10-12T16:47:41.957Z,25.58
2022-10-12T16:50:10.659Z,18.98
2022-10-12T16:52:37.741Z,13.32
2022-10-12T16:55:06.065Z,13.10
2022-10-12T16:57:33.033Z,17.05
2022-10-12T16:59:59.982Z,11.23
2022-10-12T17:02:27.904Z,10.30
2022-10-12T17:04:54.843Z,10.55
2022-10-12T17:07:22.015Z,11.55
2022-10-12T17:09:49.158Z,15.20
2022-10-12T17:12:16.433Z,13.27
2022-10-12T17:14:43.792Z,15.05
2022-10-12T17:17:10.838Z,12.73
2022-10-12T17:19:40.167Z,15.63
2022-10-12T17:22:10.053Z,20.95
2022-10-12T17:24:39.356Z,19.55
2022-10-12T17:27:08.597Z,20.55
2022-10-12T17:29:36.735Z,15.80
2022-10-12T17:32:04.426Z,13.00
2022-10-12T17:34:40.696Z,17.13
2022-10-12T17:37:11.287Z,13.98
2022-10-12T17:39:44.978Z,17.17
2022-10-12T17:42:12.986Z,16.70
2022-10-12T17:44:40.209Z,19.90
2022-10-12T17:47:07.283Z,19.67
2022-10-12T17:49:34.303Z,18.98
2022-10-12T17:52:01.248Z,17.25
2022-10-12T17:54:28.312Z,18.08
2022-10-12T17:56:56.428Z,18.73
2022-10-12T17:59:23.842Z,19.35
2022-10-12T18:01:51.993Z,15.67
2022-10-12T18:04:20.247Z,16.50
2022-10-12T18:06:47.229Z,19.80
2022-10-12T18:09:14.720Z,18.33
2022-10-12T18:11:41.864Z,19.77
2022-10-12T18:14:10.791Z,13.87
2022-10-12T18:16:38.117Z,15.63
2022-10-12T18:19:06.965Z,18.00
2022-10-12T18:21:34.563Z,17.37
2022-10-12T18:24:06.915Z,20.00
2022-10-12T18:26:34.996Z,13.50
2022-10-12T18:29:02.315Z,13.23
2022-10-12T18:31:30.487Z,18.60
2022-10-12T18:33:58.300Z,23.90
2022-10-12T18:36:26.848Z,18.83
2022-10-12T18:38:54.515Z,14.80
2022-10-12T18:41:25.726Z,14.63
2022-10-12T18:43:58.150Z,17.90
2022-10-12T18:46:28.809Z,21.97
2022-10-12T18:48:56.624Z,16.80
2022-10-12T18:51:31.813Z,24.77
2022-10-12T18:54:00.804Z,16.27
2022-10-12T18:56:29.326Z,18.43
2022-10-12T18:58:59.629Z,19.23
2022-10-12T19:01:29.355Z,22.67
2022-10-12T19:03:59.225Z,18.10
2022-10-12T19:06:31.722Z,24.63
2022-10-12T19:08:59.864Z,24.97
2022-10-12T19:11:29.383Z,19.57
2022-10-12T19:14:01.619Z,25.97
2022-10-12T19:16:29.593Z,20.87
2022-10-12T19:19:20.899Z,27.03
2022-10-12T19:21:50.275Z,22.07
2022-10-12T19:24:18.344Z,22.57
2022-10-12T19:26:45.436Z,24.73
2022-10-12T19:29:12.489Z,24.13
2022-10-12T19:31:43.983Z,18.10
2022-10-12T19:34:14.309Z,20.73
2022-10-12T19:36:42.017Z,15.30
2022-10-12T19:39:14.869Z,18.13
2022-10-12T19:41:41.890Z,18.83
2022-10-12T19:44:10.485Z,23.37
2022-10-12T19:46:37.539Z,16.57
2022-10-12T19:49:04.552Z,17.60
2022-10-12T19:51:32.579Z,21.93
2022-10-12T19:54:02.114Z,29.90
2022-10-12T19:56:29.523Z,23.03
2022-10-12T19:58:58.211Z,27.07
2022-10-12T20:01:35.203Z,18.10
2022-10-12T20:04:07.084Z,21.97
2022-10-12T20:06:34.039Z,16.30
2022-10-12T20:09:05.020Z,15.93
2022-10-12T20:11:32.071Z,24.33
2022-10-12T20:13:59.548Z,20.70
2022-10-12T20:16:29.013Z,16.83
2022-10-12T20:18:58.080Z,23.67
2022-10-12T20:21:27.556Z,17.93
2022-10-12T20:23:54.919Z,17.17
2022-10-12T20:26:25.027Z,20.97
2022-10-12T20:28:53.789Z,24.07
2022-10-12T20:31:23.790Z,18.83
2022-10-12T20:33:53.203Z,23.73
2022-10-12T20:36:28.542Z,19.08
2022-10-12T20:38:57.478Z,20.40
2022-10-12T20:41:25.568Z,18.17
2022-10-12T20:44:00.504Z,15.57
2022-10-12T20:46:30.855Z,18.30
2022-10-12T20:49:00.535Z,17.42
2022-10-12T20:51:35.732Z,15.20
2022-10-12T20:54:05.605Z,14.63
2022-10-12T20:56:33.867Z,14.55
2022-10-12T20:59:01.785Z,15.93
2022-10-12T21:01:29.374Z,15.20
2022-10-12T21:03:56.564Z,13.50
2022-10-12T21:06:23.874Z,13.90
2022-10-12T21:08:56.915Z,13.47
2022-10-12T21:11:25.443Z,11.97
2022-10-12T21:13:53.260Z,17.67
2022-10-12T21:16:20.282Z,19.70
2022-10-12T21:18:47.465Z,15.83
2022-10-12T21:21:17.924Z,16.52
2022-10-12T21:23:56.229Z,20.27
2022-10-12T21:26:26.648Z,17.30
2022-10-12T21:28:53.903Z,13.60
2022-10-12T21:31:21.679Z,16.57
2022-10-12T21:33:48.598Z,15.90
2022-10-12T21:36:24.741Z,13.70
2022-10-12T21:38:51.784Z,13.67
2022-10-12T21:41:22.614Z,15.17
2022-10-12T21:43:50.927Z,17.47
2022-10-12T21:46:22.070Z,15.27
2022-10-12T21:48:49.517Z,13.83
2022-10-12T21:51:18.120Z,12.37
2022-10-12T21:53:45.232Z,13.97
2022-10-12T21:56:28.989Z,12.33
2022-10-12T21:58:58.616Z,19.60
2022-10-12T22:01:36.420Z,14.70
2022-10-12T22:04:13.969Z,17.50
2022-10-12T22:06:42.229Z,17.03
2022-10-12T22:09:16.407Z,17.63
2022-10-12T22:11:44.070Z,22.67
2022-10-12T22:14:15.111Z,16.67
2022-10-12T22:16:43.413Z,17.07
2022-10-12T22:19:18.885Z,20.23
2022-10-12T22:21:51.638Z,16.83
2022-10-12T22:24:20.215Z,18.57
2022-10-12T22:26:47.640Z,16.93
2022-10-12T22:29:14.562Z,16.83
2022-10-12T22:31:41.730Z,17.70
2022-10-12T22:34:09.682Z,17.60
2022-10-12T22:36:36.638Z,18.27
2022-10-12T22:39:04.235Z,18.93
2022-10-12T22:41:31.298Z,19.70
2022-10-12T22:43:58.215Z,18.77
2022-10-12T22:46:26.832Z,23.03
2022-10-12T22:48:54.654Z,25.23
2022-10-12T22:51:33.995Z,21.97
2022-10-12T22:54:03.198Z,20.97
2022-10-12T22:56:30.151Z,17.53
2022-10-12T22:59:00.743Z,18.57
2022-10-12T23:01:28.679Z,19.10
2022-10-12T23:03:55.921Z,20.37
2022-10-12T23:06:23.815Z,17.30
2022-10-12T23:08:51.259Z,18.60
2022-10-12T23:11:23.077Z,19.77
2022-10-12T23:13:50.378Z,20.03
2022-10-12T23:16:21.871Z,22.67
2022-10-12T23:18:58.055Z,19.57
2022-10-12T23:21:28.317Z,23.17
2022-10-12T23:23:55.475Z,22.27
2022-10-12T23:26:25.965Z,22.47
2022-10-12T23:28:54.090Z,20.53
2022-10-12T23:31:25.345Z,24.87
2022-10-12T23:34:04.140Z,25.73
2022-10-12T23:36:31.772Z,27.10
2022-10-12T23:39:04.312Z,18.47
2022-10-12T23:41:31.251Z,23.40
2022-10-12T23:43:58.215Z,22.97
2022-10-12T23:46:25.187Z,22.53
2022-10-12T23:48:52.199Z,21.43
2022-10-12T23:51:19.271Z,19.83
2022-10-12T23:53:46.214Z,22.50
2022-10-12T23:56:13.128Z,20.15
2022-10-12T23:58:40.766Z,23.40
